Decoded Metar for LFOC (CHATEAUDUN in FRANCE) (IATA:N/A) | Meteo·Mobile Aviation Weather
aviador You're here:

LFOC Decoded Metar

CHATEAUDUN in FRANCE
Report Time2018-11-12 22:30:00
UTC Time2018-11-12 23:02:39
Flight Rules mvfr MVFR
Wind190° at 07 kt
W.Decomp.*RWY 28: 0.1 kt HW 7 kt LCW
W.Rank190° ranks 15
Current wind is below 190° avg. (7.8)
Visibility6000 m
Phenomena:N/A
Clouds:Few 003 Hf
Broken 130 Hf
Overcast 160 Hf
Ceiling13,000 ft
Temp10°C (ISA -4)
Dew Point10°C (100% RH)
AAT7.5°C
QNH1020 hPa
Density Alt-151 ft
Elevation417 ft
Report Wrong Elevation
Raw Report
METAR LFOC 122230Z AUTO 19007KT 6000 FEW003 BKN130 OVC160 10/10 Q1020=

Extra information for LFOC:More info

Metar Taf Metar & Taf Last 4 Metars F.Rules Stats Wind Profile Meteogram Temp Stats Airport Information Weather charts Add Link Nearby VenuesMetar ALERT Operation Metar Decoded Social comments